createdAt,value
2023-01-12T00:04:55.004Z,99142.73
2023-01-12T00:10:02.474Z,99150.62
2023-01-12T00:15:11.903Z,99162.20
2023-01-12T00:20:19.936Z,99171.05
2023-01-12T00:25:27.721Z,99175.51
2023-01-12T00:30:35.182Z,99178.96
2023-01-12T00:35:42.630Z,99182.95
2023-01-12T00:40:50.452Z,99183.69
2023-01-12T00:45:58.227Z,99193.48
2023-01-12T00:51:07.573Z,99201.36
2023-01-12T00:56:18.970Z,99205.01
2023-01-12T01:01:27.692Z,99202.39
2023-01-12T01:06:35.311Z,99204.96
2023-01-12T01:11:43.020Z,99207.58
2023-01-12T01:16:51.150Z,99215.58
2023-01-12T01:22:01.474Z,99211.55
2023-01-12T01:27:09.796Z,99206.91
2023-01-12T01:32:17.212Z,99211.70
2023-01-12T01:37:25.752Z,99215.80
2023-01-12T01:42:33.476Z,99208.16
2023-01-12T01:47:46.257Z,99208.27
2023-01-12T01:52:57.524Z,99202.26
2023-01-12T01:58:10.495Z,99199.34
2023-01-12T02:03:22.322Z,99194.09
2023-01-12T02:08:36.439Z,99191.18
2023-01-12T02:14:02.415Z,99192.36
2023-01-12T02:19:29.533Z,99199.88
2023-01-12T02:24:57.046Z,99202.35
2023-01-12T02:30:40.095Z,99200.00
2023-01-12T02:36:02.546Z,99210.91
2023-01-12T02:41:43.326Z,99219.53
2023-01-12T02:46:54.297Z,99230.84
2023-01-12T02:52:07.086Z,99227.73
2023-01-12T02:57:15.840Z,99220.83
2023-01-12T03:02:26.333Z,99223.53
2023-01-12T03:07:47.507Z,99228.05
2023-01-12T03:12:58.612Z,99235.80
2023-01-12T03:18:10.293Z,99234.29
2023-01-12T03:23:23.438Z,99227.98
2023-01-12T03:28:37.971Z,99225.31
2023-01-12T03:33:46.966Z,99224.54
2023-01-12T03:39:04.198Z,99225.63
2023-01-12T03:44:20.802Z,99233.72
2023-01-12T03:49:37.471Z,99240.20
2023-01-12T03:54:48.009Z,99240.40
2023-01-12T04:00:00.667Z,99240.27
2023-01-12T04:05:11.093Z,99242.84
2023-01-12T04:10:19.366Z,99242.74
2023-01-12T04:15:28.058Z,99244.52
2023-01-12T04:20:35.675Z,99244.62
2023-01-12T04:25:43.435Z,99246.26
2023-01-12T04:30:51.005Z,99250.82
2023-01-12T04:35:59.743Z,99245.34
2023-01-12T04:41:09.095Z,99245.98
2023-01-12T04:46:17.864Z,99249.45
2023-01-12T04:51:26.418Z,99246.09
2023-01-12T04:56:34.335Z,99244.47
2023-01-12T05:01:42.609Z,99245.09
2023-01-12T05:06:50.127Z,99240.25
2023-01-12T05:11:57.605Z,99243.83
2023-01-12T05:17:05.633Z,99245.71
2023-01-12T05:22:22.805Z,99248.38
2023-01-12T05:27:31.308Z,99250.30
2023-01-12T05:32:42.616Z,99254.42
2023-01-12T05:37:50.787Z,99251.58
2023-01-12T05:43:16.394Z,99243.00
2023-01-12T05:48:24.255Z,99249.90
2023-01-12T05:53:32.903Z,99252.73
2023-01-12T06:04:38.378Z,99255.10
2023-01-12T06:09:46.261Z,99254.89
2023-01-12T06:14:54.366Z,99256.26
2023-01-12T06:20:02.448Z,99260.68
2023-01-12T06:25:12.545Z,99262.91
2023-01-12T06:30:23.747Z,99266.50
2023-01-12T06:35:34.000Z,99271.52
2023-01-12T06:40:41.246Z,99274.50
2023-01-12T06:45:48.928Z,99291.66
2023-01-12T06:51:03.281Z,99299.06
2023-01-12T06:56:11.050Z,99310.64
2023-01-12T07:01:18.592Z,99320.00
2023-01-12T07:09:27.877Z,99326.96
2023-01-12T07:14:35.495Z,99327.13
2023-01-12T07:19:43.873Z,99326.02
2023-01-12T07:24:51.727Z,99326.10
2023-01-12T07:29:59.851Z,99336.15
2023-01-12T07:35:09.967Z,99337.98
2023-01-12T07:40:19.775Z,99334.46
2023-01-12T07:45:29.125Z,99337.58
2023-01-12T07:50:37.427Z,99337.43
2023-01-12T07:55:46.085Z,99342.04
2023-01-12T08:00:53.692Z,99338.29
2023-01-12T08:06:03.429Z,99338.70
2023-01-12T08:11:12.333Z,99340.29
2023-01-12T08:16:26.721Z,99342.57
2023-01-12T08:21:45.421Z,99348.35
2023-01-12T08:26:57.483Z,99349.69
2023-01-12T08:37:17.776Z,99354.06
2023-01-12T08:42:30.856Z,99358.66
2023-01-12T08:47:42.661Z,99356.42
2023-01-12T08:52:50.332Z,99361.10
2023-01-12T08:57:59.509Z,99366.48
2023-01-12T09:03:07.365Z,99362.57
2023-01-12T09:08:16.280Z,99353.30
2023-01-12T09:13:25.152Z,99354.14
2023-01-12T09:18:33.074Z,99359.29
2023-01-12T09:23:41.578Z,99358.29
2023-01-12T09:28:49.212Z,99359.30
2023-01-12T09:33:57.729Z,99348.13
2023-01-12T09:39:06.045Z,99345.33
2023-01-12T09:44:40.434Z,99330.52
2023-01-12T09:50:01.327Z,99320.45
2023-01-12T09:55:20.502Z,99314.77
2023-01-12T10:00:29.531Z,99308.20
2023-01-12T10:05:46.416Z,99307.52
2023-01-12T10:11:06.439Z,99295.66
2023-01-12T10:16:23.741Z,99287.98
2023-01-12T10:21:33.831Z,99281.64
2023-01-12T10:26:46.418Z,99286.77
2023-01-12T10:31:53.782Z,99282.81
2023-01-12T10:37:10.746Z,99285.10
2023-01-12T10:42:40.065Z,99285.19
2023-01-12T10:47:50.832Z,99277.20
2023-01-12T10:53:04.083Z,99276.91
2023-01-12T10:58:24.325Z,99281.05
2023-01-12T11:03:38.453Z,99272.74
2023-01-12T11:08:49.365Z,99256.23
2023-01-12T11:14:00.468Z,99260.39
2023-01-12T11:19:29.048Z,99260.59
2023-01-12T11:24:43.639Z,99247.66
2023-01-12T11:30:00.435Z,99233.63
2023-01-12T11:35:29.652Z,99229.12
2023-01-12T11:40:40.029Z,99235.87
2023-01-12T11:45:55.197Z,99231.50
2023-01-12T11:51:03.928Z,99222.54
2023-01-12T11:56:25.960Z,99223.03
2023-01-12T12:01:44.957Z,99221.70
2023-01-12T12:07:05.359Z,99222.82
2023-01-12T12:12:27.363Z,99213.45
2023-01-12T12:17:44.265Z,99206.02
2023-01-12T12:23:07.064Z,99206.59
2023-01-12T12:28:30.717Z,99197.15
2023-01-12T12:34:00.692Z,99194.77
2023-01-12T12:39:29.205Z,99193.75
2023-01-12T12:45:08.892Z,99194.02
2023-01-12T12:50:22.487Z,99188.02
2023-01-12T12:55:31.319Z,99192.30
2023-01-12T13:00:42.996Z,99184.64
2023-01-12T13:06:11.500Z,99182.11
2023-01-12T13:11:19.259Z,99182.31
2023-01-12T13:16:49.809Z,99184.75
2023-01-12T13:22:19.679Z,99181.21
2023-01-12T13:27:56.163Z,99178.71
2023-01-12T13:33:16.861Z,99182.71
2023-01-12T13:38:40.833Z,99173.65
2023-01-12T13:43:55.211Z,99174.73
2023-01-12T13:49:03.970Z,99179.39
2023-01-12T13:54:16.115Z,99181.09
2023-01-12T13:59:26.462Z,99179.48
2023-01-12T14:04:58.023Z,99181.05
2023-01-12T14:10:21.441Z,99169.23
2023-01-12T14:15:56.517Z,99159.09
2023-01-12T14:21:04.892Z,99156.46
2023-01-12T14:26:23.089Z,99147.07
2023-01-12T14:31:40.614Z,99151.73
2023-01-12T14:36:48.924Z,99149.83
2023-01-12T14:42:16.211Z,99146.13
2023-01-12T14:47:33.785Z,99136.69
2023-01-12T14:52:47.124Z,99127.40
2023-01-12T14:57:57.257Z,99135.80
2023-01-12T15:03:14.886Z,99134.63
2023-01-12T15:08:26.979Z,99132.38
2023-01-12T15:13:36.263Z,99136.55
2023-01-12T15:19:02.732Z,99140.13
2023-01-12T15:24:40.621Z,99136.36
2023-01-12T15:29:46.657Z,99137.97
2023-01-12T15:34:55.267Z,99145.63
2023-01-12T15:47:31.278Z,99144.91
2023-01-12T15:52:35.478Z,99140.45
2023-01-12T15:57:39.749Z,99132.84
2023-01-12T16:02:47.720Z,99139.98
2023-01-12T16:07:52.484Z,99145.73
2023-01-12T16:12:59.326Z,99145.92
2023-01-12T16:18:03.433Z,99147.17
2023-01-12T16:23:07.405Z,99139.41
2023-01-12T16:28:11.420Z,99134.95
2023-01-12T16:33:17.338Z,99128.67
2023-01-12T16:38:21.936Z,99124.60
2023-01-12T16:43:29.670Z,99125.46
2023-01-12T16:48:34.846Z,99127.88
2023-01-12T16:53:41.133Z,99127.56
2023-01-12T16:58:48.000Z,99132.02
2023-01-12T17:03:57.423Z,99134.94
2023-01-12T17:09:02.611Z,99129.91
2023-01-12T17:14:22.390Z,99123.91
2023-01-12T17:19:29.743Z,99119.16
2023-01-12T17:24:35.364Z,99116.35
2023-01-12T17:29:39.892Z,99109.64
2023-01-12T17:34:47.409Z,99110.04
2023-01-12T17:39:52.562Z,99104.90
2023-01-12T17:54:41.676Z,99109.69
2023-01-12T17:59:50.226Z,99104.06
2023-01-12T18:04:57.598Z,99098.05
2023-01-12T18:10:05.169Z,99091.11
2023-01-12T18:15:14.702Z,99085.52
2023-01-12T18:20:22.475Z,99082.95
2023-01-12T18:25:29.933Z,99083.82
2023-01-12T18:30:37.615Z,99080.05
2023-01-12T18:35:43.128Z,99077.58
2023-01-12T18:41:10.605Z,99072.20
2023-01-12T18:46:18.250Z,99060.52
2023-01-12T18:51:43.293Z,99057.07
2023-01-12T18:56:52.793Z,99063.40
2023-01-12T19:02:00.101Z,99059.04
2023-01-12T19:07:07.394Z,99056.98
2023-01-12T19:12:13.213Z,99047.90
2023-01-12T19:17:34.284Z,99048.45
2023-01-12T19:22:59.269Z,99040.63
2023-01-12T19:28:24.599Z,99028.90
2023-01-12T19:33:31.623Z,99034.66
2023-01-12T19:38:39.546Z,99039.86
2023-01-12T19:43:49.578Z,99040.90
2023-01-12T19:48:56.838Z,99037.80
2023-01-12T19:54:04.089Z,99035.69
2023-01-12T20:02:31.854Z,99030.58
2023-01-12T20:07:39.503Z,99026.58
2023-01-12T20:12:46.814Z,99024.27
2023-01-12T20:17:56.784Z,99029.89
2023-01-12T20:23:03.946Z,99035.34
2023-01-12T20:28:09.712Z,99035.73
2023-01-12T20:33:18.971Z,99035.57
2023-01-12T20:38:26.710Z,99031.98
2023-01-12T20:43:34.525Z,99026.69
2023-01-12T20:48:42.925Z,99017.45
2023-01-12T20:53:50.292Z,99015.48
2023-01-12T20:58:58.202Z,99010.56
2023-01-12T21:04:05.351Z,99009.72
2023-01-12T21:09:12.850Z,99006.74
2023-01-12T21:14:19.805Z,99005.02
2023-01-12T21:19:27.221Z,99009.66
2023-01-12T21:24:34.684Z,99005.81
2023-01-12T21:29:41.839Z,99009.55
2023-01-12T21:34:49.247Z,99015.70
2023-01-12T21:39:56.717Z,99011.23
2023-01-12T21:45:04.143Z,99015.94
2023-01-12T21:50:13.553Z,99015.54
2023-01-12T21:55:20.843Z,99011.08
2023-01-12T22:00:26.573Z,99009.15
2023-01-12T22:05:34.721Z,99004.79
2023-01-12T22:10:42.261Z,98996.83
2023-01-12T22:15:51.150Z,98997.25
2023-01-12T22:21:03.920Z,98999.46
2023-01-12T22:26:13.326Z,98996.41
2023-01-12T22:31:23.018Z,98986.21
2023-01-12T22:36:32.192Z,98986.92
2023-01-12T22:41:42.162Z,98976.55
2023-01-12T22:46:49.349Z,98970.16
2023-01-12T22:51:55.879Z,98972.67
2023-01-12T22:57:03.183Z,98968.05
2023-01-12T23:02:24.419Z,98963.90
2023-01-12T23:07:32.054Z,98960.77
2023-01-12T23:12:39.235Z,98957.79
2023-01-12T23:17:45.054Z,98954.71
2023-01-12T23:22:53.645Z,98951.14
2023-01-12T23:28:01.546Z,98952.89
2023-01-12T23:33:09.310Z,98953.29
2023-01-12T23:38:18.123Z,98952.59
2023-01-12T23:43:25.969Z,98953.77
2023-01-12T23:48:34.466Z,98950.44
2023-01-12T23:53:42.048Z,98946.42
2023-01-12T23:58:49.547Z,98946.47
